Terminal Aerodrome Forecast
Issued by NWS

Home | Current Version | Previous Version | Text Only | Print | Product List | Glossary On
Versions: 1 2 3 4 5 6 7 8 9 10 11 12
000
FTUS43 KFGF 280520
TAFTVF
TAF
KTVF 280520Z 2806/2906 VRB04KT P6SM SKC
     FM281200 12007KT P6SM -SHRA OVC050
     FM281600 18014G22KT P6SM VCSH BKN070
     FM282000 22016G26KT P6SM VCTS BKN050CB
     FM290300 33010KT P6SM -SHRA OVC030
      AMD LTD TO CLD VIS AND WIND=

USA.gov is the U.S. government's official web portal to all federal, state and local government web resources and services.